Weather at Athens Hellenikon International Airport [CLOSED]

Public forecast

Using degrees Celsius for public forecast. Weather courtesy of forecast.io.

Closest aviation weather report (METAR) to Athens Hellenikon International Airport

Closest report is Athens Eleftherios Venizelos International Airport, 10.5 nm (19.4 km) ENE.

2023/02/05 03:20 (retrieved 35 minutes ago)

LGAV 050320Z 35009G20KT 310V020 9999 FEW020 BKN050 07/01 Q1010 NOSIG

Closest aviation forecast (TAF) to Athens Hellenikon International Airport

Forecast is more than 6 hours old.

Closest forecast is Crotone Airport, 319.6 nm (591.9 km) WNW.

2023/02/04 18:42 (retrieved 9 hours ago)

TAF TAF LIBC 041935Z 0418/0518 CNL